sensor_id;sensor_type;location;lat;lon;timestamp;P1;durP1;ratioP1;P2;durP2;ratioP2
46607;SDS011;32330;51.936;7.184;2023-06-22T00:00:37;11.75;;;9.23;;
46607;SDS011;32330;51.936;7.184;2023-06-22T00:03:09;10.25;;;9.25;;
46607;SDS011;32330;51.936;7.184;2023-06-22T00:05:38;11.57;;;9.60;;
46607;SDS011;32330;51.936;7.184;2023-06-22T00:08:05;12.75;;;9.88;;
46607;SDS011;32330;51.936;7.184;2023-06-22T00:10:32;10.80;;;9.73;;
46607;SDS011;32330;51.936;7.184;2023-06-22T00:13:00;12.10;;;9.80;;
46607;SDS011;32330;51.936;7.184;2023-06-22T00:15:27;10.32;;;9.27;;
46607;SDS011;32330;51.936;7.184;2023-06-22T00:17:55;12.68;;;10.45;;
46607;SDS011;32330;51.936;7.184;2023-06-22T00:20:26;11.45;;;10.25;;
46607;SDS011;32330;51.936;7.184;2023-06-22T00:22:55;12.00;;;10.00;;
46607;SDS011;32330;51.936;7.184;2023-06-22T00:25:25;12.03;;;10.67;;
46607;SDS011;32330;51.936;7.184;2023-06-22T00:27:52;11.60;;;10.13;;
46607;SDS011;32330;51.936;7.184;2023-06-22T00:30:19;10.85;;;9.80;;
46607;SDS011;32330;51.936;7.184;2023-06-22T00:32:46;12.23;;;11.02;;
46607;SDS011;32330;51.936;7.184;2023-06-22T00:35:14;11.73;;;10.52;;
46607;SDS011;32330;51.936;7.184;2023-06-22T00:37:45;11.23;;;10.13;;
46607;SDS011;32330;51.936;7.184;2023-06-22T00:40:13;13.57;;;10.57;;
46607;SDS011;32330;51.936;7.184;2023-06-22T00:42:41;12.43;;;11.02;;
46607;SDS011;32330;51.936;7.184;2023-06-22T00:45:08;12.10;;;10.55;;
46607;SDS011;32330;51.936;7.184;2023-06-22T00:47:36;11.63;;;10.25;;
46607;SDS011;32330;51.936;7.184;2023-06-22T00:50:04;11.77;;;10.35;;
46607;SDS011;32330;51.936;7.184;2023-06-22T00:52:33;11.40;;;10.30;;
46607;SDS011;32330;51.936;7.184;2023-06-22T00:55:03;12.60;;;10.85;;
46607;SDS011;32330;51.936;7.184;2023-06-22T00:57:32;13.75;;;11.55;;
46607;SDS011;32330;51.936;7.184;2023-06-22T01:00:06;12.10;;;10.77;;
46607;SDS011;32330;51.936;7.184;2023-06-22T01:02:45;12.27;;;11.15;;
46607;SDS011;32330;51.936;7.184;2023-06-22T01:05:18;11.98;;;10.52;;
46607;SDS011;32330;51.936;7.184;2023-06-22T01:07:54;13.10;;;11.52;;
46607;SDS011;32330;51.936;7.184;2023-06-22T01:10:43;13.23;;;11.63;;
46607;SDS011;32330;51.936;7.184;2023-06-22T01:13:16;13.43;;;12.13;;
46607;SDS011;32330;51.936;7.184;2023-06-22T01:15:51;13.73;;;12.13;;
46607;SDS011;32330;51.936;7.184;2023-06-22T01:18:23;12.35;;;11.15;;
46607;SDS011;32330;51.936;7.184;2023-06-22T01:20:55;13.73;;;10.88;;
46607;SDS011;32330;51.936;7.184;2023-06-22T01:23:27;13.48;;;11.98;;
46607;SDS011;32330;51.936;7.184;2023-06-22T01:26:05;12.25;;;10.32;;
46607;SDS011;32330;51.936;7.184;2023-06-22T01:28:43;13.55;;;11.90;;
46607;SDS011;32330;51.936;7.184;2023-06-22T01:31:13;12.25;;;11.05;;
46607;SDS011;32330;51.936;7.184;2023-06-22T01:33:43;12.50;;;10.98;;
46607;SDS011;32330;51.936;7.184;2023-06-22T01:36:13;12.68;;;11.40;;
46607;SDS011;32330;51.936;7.184;2023-06-22T01:38:45;11.93;;;10.73;;
46607;SDS011;32330;51.936;7.184;2023-06-22T01:41:14;12.65;;;11.35;;
46607;SDS011;32330;51.936;7.184;2023-06-22T01:43:44;12.82;;;11.52;;
46607;SDS011;32330;51.936;7.184;2023-06-22T01:46:12;12.45;;;11.15;;
46607;SDS011;32330;51.936;7.184;2023-06-22T01:48:40;12.73;;;10.57;;
46607;SDS011;32330;51.936;7.184;2023-06-22T01:51:07;12.65;;;11.40;;
46607;SDS011;32330;51.936;7.184;2023-06-22T01:53:35;12.82;;;11.52;;
46607;SDS011;32330;51.936;7.184;2023-06-22T01:56:08;12.77;;;11.48;;
46607;SDS011;32330;51.936;7.184;2023-06-22T01:58:36;12.35;;;11.07;;
46607;SDS011;32330;51.936;7.184;2023-06-22T02:01:14;13.38;;;11.98;;
46607;SDS011;32330;51.936;7.184;2023-06-22T02:03:48;11.75;;;10.43;;
46607;SDS011;32330;51.936;7.184;2023-06-22T02:06:21;14.00;;;12.27;;
46607;SDS011;32330;51.936;7.184;2023-06-22T02:08:54;12.85;;;11.60;;
46607;SDS011;32330;51.936;7.184;2023-06-22T02:11:27;13.05;;;11.50;;
46607;SDS011;32330;51.936;7.184;2023-06-22T02:13:56;12.88;;;11.52;;
46607;SDS011;32330;51.936;7.184;2023-06-22T02:16:28;12.38;;;11.13;;
46607;SDS011;32330;51.936;7.184;2023-06-22T02:18:57;12.85;;;11.38;;
46607;SDS011;32330;51.936;7.184;2023-06-22T02:21:33;13.63;;;12.07;;
46607;SDS011;32330;51.936;7.184;2023-06-22T02:24:03;13.60;;;12.30;;
46607;SDS011;32330;51.936;7.184;2023-06-22T02:26:30;10.95;;;9.95;;
46607;SDS011;32330;51.936;7.184;2023-06-22T02:29:01;12.23;;;11.13;;
46607;SDS011;32330;51.936;7.184;2023-06-22T02:31:29;12.88;;;10.40;;
46607;SDS011;32330;51.936;7.184;2023-06-22T02:34:02;13.15;;;11.85;;
46607;SDS011;32330;51.936;7.184;2023-06-22T02:36:30;12.95;;;11.63;;
46607;SDS011;32330;51.936;7.184;2023-06-22T02:38:59;14.60;;;11.57;;
46607;SDS011;32330;51.936;7.184;2023-06-22T02:41:29;13.75;;;11.45;;
46607;SDS011;32330;51.936;7.184;2023-06-22T02:43:56;12.93;;;11.65;;
46607;SDS011;32330;51.936;7.184;2023-06-22T02:46:27;13.05;;;11.75;;
46607;SDS011;32330;51.936;7.184;2023-06-22T02:48:57;12.48;;;11.18;;
46607;SDS011;32330;51.936;7.184;2023-06-22T02:51:24;13.47;;;12.17;;
46607;SDS011;32330;51.936;7.184;2023-06-22T02:53:51;12.52;;;11.32;;
46607;SDS011;32330;51.936;7.184;2023-06-22T02:56:23;12.20;;;11.05;;
46607;SDS011;32330;51.936;7.184;2023-06-22T02:58:58;12.70;;;11.40;;
46607;SDS011;32330;51.936;7.184;2023-06-22T03:01:30;12.60;;;11.30;;
46607;SDS011;32330;51.936;7.184;2023-06-22T03:04:05;13.85;;;12.10;;
46607;SDS011;32330;51.936;7.184;2023-06-22T03:06:34;12.13;;;11.00;;
46607;SDS011;32330;51.936;7.184;2023-06-22T03:09:03;13.45;;;11.55;;
46607;SDS011;32330;51.936;7.184;2023-06-22T03:11:33;17.70;;;12.00;;
46607;SDS011;32330;51.936;7.184;2023-06-22T03:14:02;13.70;;;12.35;;
46607;SDS011;32330;51.936;7.184;2023-06-22T03:16:33;12.13;;;10.85;;
46607;SDS011;32330;51.936;7.184;2023-06-22T03:19:04;12.73;;;11.43;;
46607;SDS011;32330;51.936;7.184;2023-06-22T03:21:31;11.93;;;10.60;;
46607;SDS011;32330;51.936;7.184;2023-06-22T03:24:00;11.13;;;10.02;;
46607;SDS011;32330;51.936;7.184;2023-06-22T03:26:27;12.50;;;10.82;;
46607;SDS011;32330;51.936;7.184;2023-06-22T03:28:58;12.73;;;11.43;;
46607;SDS011;32330;51.936;7.184;2023-06-22T03:31:29;12.48;;;10.80;;
46607;SDS011;32330;51.936;7.184;2023-06-22T03:33:57;11.68;;;10.50;;
46607;SDS011;32330;51.936;7.184;2023-06-22T03:36:29;12.20;;;10.87;;
46607;SDS011;32330;51.936;7.184;2023-06-22T03:38:56;12.60;;;10.85;;
46607;SDS011;32330;51.936;7.184;2023-06-22T03:41:26;12.68;;;10.77;;
46607;SDS011;32330;51.936;7.184;2023-06-22T03:43:53;11.77;;;10.60;;
46607;SDS011;32330;51.936;7.184;2023-06-22T03:46:20;11.85;;;10.68;;
46607;SDS011;32330;51.936;7.184;2023-06-22T03:48:51;12.18;;;10.98;;
46607;SDS011;32330;51.936;7.184;2023-06-22T03:51:21;12.10;;;10.77;;
46607;SDS011;32330;51.936;7.184;2023-06-22T03:53:53;13.00;;;10.93;;
46607;SDS011;32330;51.936;7.184;2023-06-22T03:56:20;11.90;;;10.60;;
46607;SDS011;32330;51.936;7.184;2023-06-22T03:58:47;11.65;;;10.55;;
46607;SDS011;32330;51.936;7.184;2023-06-22T04:01:15;12.65;;;11.27;;
46607;SDS011;32330;51.936;7.184;2023-06-22T04:03:50;11.70;;;10.50;;
46607;SDS011;32330;51.936;7.184;2023-06-22T04:06:34;12.98;;;10.77;;
46607;SDS011;32330;51.936;7.184;2023-06-22T04:09:09;10.82;;;9.77;;
46607;SDS011;32330;51.936;7.184;2023-06-22T04:11:50;12.00;;;10.75;;
46607;SDS011;32330;51.936;7.184;2023-06-22T04:14:37;11.95;;;10.75;;
46607;SDS011;32330;51.936;7.184;2023-06-22T04:17:07;14.90;;;13.32;;
46607;SDS011;32330;51.936;7.184;2023-06-22T04:19:47;12.93;;;11.13;;
46607;SDS011;32330;51.936;7.184;2023-06-22T04:22:31;12.23;;;9.75;;
46607;SDS011;32330;51.936;7.184;2023-06-22T04:29:29;12.20;;;10.85;;
46607;SDS011;32330;51.936;7.184;2023-06-22T04:38:18;11.63;;;10.43;;
46607;SDS011;32330;51.936;7.184;2023-06-22T04:40:48;10.73;;;9.63;;
46607;SDS011;32330;51.936;7.184;2023-06-22T04:43:15;11.90;;;9.65;;
46607;SDS011;32330;51.936;7.184;2023-06-22T04:45:42;9.93;;;8.95;;
46607;SDS011;32330;51.936;7.184;2023-06-22T04:48:09;12.02;;;9.90;;
46607;SDS011;32330;51.936;7.184;2023-06-22T04:50:41;12.73;;;10.43;;
46607;SDS011;32330;51.936;7.184;2023-06-22T04:53:09;11.25;;;10.15;;
46607;SDS011;32330;51.936;7.184;2023-06-22T04:55:39;10.18;;;9.18;;
46607;SDS011;32330;51.936;7.184;2023-06-22T04:58:12;11.38;;;9.98;;
46607;SDS011;32330;51.936;7.184;2023-06-22T05:00:39;12.43;;;9.80;;
46607;SDS011;32330;51.936;7.184;2023-06-22T05:03:06;10.57;;;9.57;;
46607;SDS011;32330;51.936;7.184;2023-06-22T05:05:36;10.85;;;9.68;;
46607;SDS011;32330;51.936;7.184;2023-06-22T05:08:03;11.15;;;10.05;;
46607;SDS011;32330;51.936;7.184;2023-06-22T05:10:32;10.50;;;9.50;;
46607;SDS011;32330;51.936;7.184;2023-06-22T05:12:59;10.68;;;9.65;;
46607;SDS011;32330;51.936;7.184;2023-06-22T05:15:27;10.05;;;9.05;;
46607;SDS011;32330;51.936;7.184;2023-06-22T05:17:55;12.10;;;9.52;;
46607;SDS011;32330;51.936;7.184;2023-06-22T05:20:23;11.00;;;9.82;;
46607;SDS011;32330;51.936;7.184;2023-06-22T05:22:50;12.57;;;10.23;;
46607;SDS011;32330;51.936;7.184;2023-06-22T05:25:17;11.00;;;9.18;;
46607;SDS011;32330;51.936;7.184;2023-06-22T05:27:45;11.00;;;9.27;;
46607;SDS011;32330;51.936;7.184;2023-06-22T05:30:12;10.40;;;9.30;;
46607;SDS011;32330;51.936;7.184;2023-06-22T05:32:40;10.57;;;9.50;;
46607;SDS011;32330;51.936;7.184;2023-06-22T05:35:09;11.10;;;10.00;;
46607;SDS011;32330;51.936;7.184;2023-06-22T05:37:36;11.70;;;9.30;;
46607;SDS011;32330;51.936;7.184;2023-06-22T05:40:03;10.60;;;9.30;;
46607;SDS011;32330;51.936;7.184;2023-06-22T05:42:32;9.85;;;8.90;;
46607;SDS011;32330;51.936;7.184;2023-06-22T05:44:59;10.63;;;9.52;;
46607;SDS011;32330;51.936;7.184;2023-06-22T05:47:26;10.65;;;9.55;;
46607;SDS011;32330;51.936;7.184;2023-06-22T05:49:54;11.05;;;9.63;;
46607;SDS011;32330;51.936;7.184;2023-06-22T05:52:21;10.52;;;8.60;;
46607;SDS011;32330;51.936;7.184;2023-06-22T05:54:48;11.98;;;9.68;;
46607;SDS011;32330;51.936;7.184;2023-06-22T05:57:15;10.02;;;8.52;;
46607;SDS011;32330;51.936;7.184;2023-06-22T05:59:42;10.65;;;9.60;;
46607;SDS011;32330;51.936;7.184;2023-06-22T06:02:09;10.73;;;9.52;;
46607;SDS011;32330;51.936;7.184;2023-06-22T06:04:36;10.13;;;9.02;;
46607;SDS011;32330;51.936;7.184;2023-06-22T06:07:04;9.80;;;8.48;;
46607;SDS011;32330;51.936;7.184;2023-06-22T06:09:31;10.00;;;9.10;;
46607;SDS011;32330;51.936;7.184;2023-06-22T06:11:58;10.75;;;9.00;;
46607;SDS011;32330;51.936;7.184;2023-06-22T06:14:28;10.70;;;8.98;;
46607;SDS011;32330;51.936;7.184;2023-06-22T06:16:55;10.27;;;9.25;;
46607;SDS011;32330;51.936;7.184;2023-06-22T06:19:22;9.70;;;8.75;;
46607;SDS011;32330;51.936;7.184;2023-06-22T06:21:49;10.15;;;9.15;;
46607;SDS011;32330;51.936;7.184;2023-06-22T06:24:17;10.40;;;9.40;;
46607;SDS011;32330;51.936;7.184;2023-06-22T06:26:44;11.15;;;9.30;;
46607;SDS011;32330;51.936;7.184;2023-06-22T06:29:12;10.52;;;8.73;;
46607;SDS011;32330;51.936;7.184;2023-06-22T06:31:41;11.07;;;9.82;;
46607;SDS011;32330;51.936;7.184;2023-06-22T06:34:08;10.40;;;9.40;;
46607;SDS011;32330;51.936;7.184;2023-06-22T06:36:36;9.55;;;8.63;;
46607;SDS011;32330;51.936;7.184;2023-06-22T06:39:03;9.82;;;8.80;;
46607;SDS011;32330;51.936;7.184;2023-06-22T06:41:32;10.65;;;9.55;;
46607;SDS011;32330;51.936;7.184;2023-06-22T06:43:59;9.80;;;8.90;;
46607;SDS011;32330;51.936;7.184;2023-06-22T06:46:26;10.35;;;9.35;;
46607;SDS011;32330;51.936;7.184;2023-06-22T06:48:53;10.57;;;9.00;;
46607;SDS011;32330;51.936;7.184;2023-06-22T06:51:23;10.15;;;9.10;;
46607;SDS011;32330;51.936;7.184;2023-06-22T06:53:51;11.20;;;9.90;;
46607;SDS011;32330;51.936;7.184;2023-06-22T06:56:21;11.32;;;10.13;;
46607;SDS011;32330;51.936;7.184;2023-06-22T06:58:50;11.10;;;10.00;;
46607;SDS011;32330;51.936;7.184;2023-06-22T07:01:17;10.13;;;9.13;;
46607;SDS011;32330;51.936;7.184;2023-06-22T07:03:45;11.35;;;10.02;;
46607;SDS011;32330;51.936;7.184;2023-06-22T07:06:13;10.93;;;9.43;;
46607;SDS011;32330;51.936;7.184;2023-06-22T07:08:41;10.43;;;9.32;;
46607;SDS011;32330;51.936;7.184;2023-06-22T07:11:08;10.35;;;9.35;;
46607;SDS011;32330;51.936;7.184;2023-06-22T07:13:35;10.57;;;9.48;;
46607;SDS011;32330;51.936;7.184;2023-06-22T07:16:05;10.02;;;8.88;;
46607;SDS011;32330;51.936;7.184;2023-06-22T07:18:32;11.60;;;9.45;;
46607;SDS011;32330;51.936;7.184;2023-06-22T07:20:59;9.98;;;8.73;;
46607;SDS011;32330;51.936;7.184;2023-06-22T07:23:26;12.07;;;9.38;;
46607;SDS011;32330;51.936;7.184;2023-06-22T07:25:53;11.43;;;9.75;;
46607;SDS011;32330;51.936;7.184;2023-06-22T07:28:20;12.60;;;8.95;;
46607;SDS011;32330;51.936;7.184;2023-06-22T07:30:46;11.18;;;9.57;;
46607;SDS011;32330;51.936;7.184;2023-06-22T07:33:15;11.73;;;10.63;;
46607;SDS011;32330;51.936;7.184;2023-06-22T07:35:42;13.80;;;10.20;;
46607;SDS011;32330;51.936;7.184;2023-06-22T07:38:09;11.75;;;9.98;;
46607;SDS011;32330;51.936;7.184;2023-06-22T07:40:36;9.98;;;8.90;;
46607;SDS011;32330;51.936;7.184;2023-06-22T07:43:03;10.70;;;8.35;;
46607;SDS011;32330;51.936;7.184;2023-06-22T07:45:30;10.60;;;9.27;;
46607;SDS011;32330;51.936;7.184;2023-06-22T07:47:58;11.75;;;9.30;;
46607;SDS011;32330;51.936;7.184;2023-06-22T07:50:27;13.15;;;9.13;;
46607;SDS011;32330;51.936;7.184;2023-06-22T07:52:53;9.68;;;8.75;;
46607;SDS011;32330;51.936;7.184;2023-06-22T07:55:20;10.27;;;9.27;;
46607;SDS011;32330;51.936;7.184;2023-06-22T07:57:48;10.88;;;9.75;;
46607;SDS011;32330;51.936;7.184;2023-06-22T08:00:17;10.05;;;8.95;;
46607;SDS011;32330;51.936;7.184;2023-06-22T08:02:45;10.43;;;8.65;;
46607;SDS011;32330;51.936;7.184;2023-06-22T08:05:14;9.32;;;8.43;;
46607;SDS011;32330;51.936;7.184;2023-06-22T08:07:44;9.82;;;8.90;;
46607;SDS011;32330;51.936;7.184;2023-06-22T08:10:11;10.60;;;9.55;;
46607;SDS011;32330;51.936;7.184;2023-06-22T08:12:38;9.45;;;8.45;;
46607;SDS011;32330;51.936;7.184;2023-06-22T08:15:06;11.07;;;8.85;;
46607;SDS011;32330;51.936;7.184;2023-06-22T08:17:34;12.65;;;9.30;;
46607;SDS011;32330;51.936;7.184;2023-06-22T08:20:03;14.57;;;8.40;;
46607;SDS011;32330;51.936;7.184;2023-06-22T08:22:34;9.68;;;7.88;;
46607;SDS011;32330;51.936;7.184;2023-06-22T08:25:03;9.40;;;8.43;;
46607;SDS011;32330;51.936;7.184;2023-06-22T08:27:31;9.88;;;8.88;;
46607;SDS011;32330;51.936;7.184;2023-06-22T08:29:58;10.25;;;9.25;;
46607;SDS011;32330;51.936;7.184;2023-06-22T08:32:26;11.23;;;10.00;;
46607;SDS011;32330;51.936;7.184;2023-06-22T08:34:53;10.23;;;9.20;;
46607;SDS011;32330;51.936;7.184;2023-06-22T08:37:21;9.27;;;8.35;;
46607;SDS011;32330;51.936;7.184;2023-06-22T08:39:50;11.02;;;9.82;;
46607;SDS011;32330;51.936;7.184;2023-06-22T08:42:18;16.25;;;10.73;;
46607;SDS011;32330;51.936;7.184;2023-06-22T08:44:45;11.70;;;8.98;;
46607;SDS011;32330;51.936;7.184;2023-06-22T08:47:12;15.20;;;11.30;;
46607;SDS011;32330;51.936;7.184;2023-06-22T08:49:39;13.57;;;12.23;;
46607;SDS011;32330;51.936;7.184;2023-06-22T08:52:06;10.80;;;9.60;;
46607;SDS011;32330;51.936;7.184;2023-06-22T08:54:34;12.00;;;10.25;;
46607;SDS011;32330;51.936;7.184;2023-06-22T08:57:01;10.82;;;9.85;;
46607;SDS011;32330;51.936;7.184;2023-06-22T08:59:29;14.50;;;11.25;;
46607;SDS011;32330;51.936;7.184;2023-06-22T09:01:57;9.68;;;8.38;;
46607;SDS011;32330;51.936;7.184;2023-06-22T09:04:24;10.32;;;8.40;;
46607;SDS011;32330;51.936;7.184;2023-06-22T09:06:51;11.68;;;10.48;;
46607;SDS011;32330;51.936;7.184;2023-06-22T09:09:18;10.40;;;9.30;;
46607;SDS011;32330;51.936;7.184;2023-06-22T09:11:45;10.57;;;9.45;;
46607;SDS011;32330;51.936;7.184;2023-06-22T09:14:13;9.73;;;8.77;;
46607;SDS011;32330;51.936;7.184;2023-06-22T09:16:43;10.50;;;8.50;;
46607;SDS011;32330;51.936;7.184;2023-06-22T09:19:10;11.13;;;9.02;;
46607;SDS011;32330;51.936;7.184;2023-06-22T09:21:37;9.38;;;8.57;;
46607;SDS011;32330;51.936;7.184;2023-06-22T09:24:04;11.73;;;9.25;;
46607;SDS011;32330;51.936;7.184;2023-06-22T09:26:32;12.05;;;8.55;;
46607;SDS011;32330;51.936;7.184;2023-06-22T09:28:59;10.00;;;8.35;;
46607;SDS011;32330;51.936;7.184;2023-06-22T09:31:26;10.80;;;9.80;;
46607;SDS011;32330;51.936;7.184;2023-06-22T09:33:54;13.73;;;9.68;;
46607;SDS011;32330;51.936;7.184;2023-06-22T09:36:21;10.40;;;9.27;;
46607;SDS011;32330;51.936;7.184;2023-06-22T09:38:48;10.43;;;9.50;;
46607;SDS011;32330;51.936;7.184;2023-06-22T09:41:20;11.00;;;9.50;;
46607;SDS011;32330;51.936;7.184;2023-06-22T09:43:47;9.73;;;8.73;;
46607;SDS011;32330;51.936;7.184;2023-06-22T09:46:14;10.48;;;9.48;;
46607;SDS011;32330;51.936;7.184;2023-06-22T09:48:41;11.48;;;9.40;;
46607;SDS011;32330;51.936;7.184;2023-06-22T09:51:11;10.55;;;9.13;;
46607;SDS011;32330;51.936;7.184;2023-06-22T09:53:38;12.45;;;10.25;;
46607;SDS011;32330;51.936;7.184;2023-06-22T09:56:05;12.10;;;10.93;;
46607;SDS011;32330;51.936;7.184;2023-06-22T09:58:32;11.23;;;10.13;;
46607;SDS011;32330;51.936;7.184;2023-06-22T10:00:59;10.88;;;9.65;;
46607;SDS011;32330;51.936;7.184;2023-06-22T10:03:26;12.75;;;11.32;;
46607;SDS011;32330;51.936;7.184;2023-06-22T10:05:53;12.70;;;11.20;;
46607;SDS011;32330;51.936;7.184;2023-06-22T10:08:21;10.75;;;9.65;;
46607;SDS011;32330;51.936;7.184;2023-06-22T10:10:48;12.20;;;10.93;;
46607;SDS011;32330;51.936;7.184;2023-06-22T10:13:15;11.30;;;10.20;;
46607;SDS011;32330;51.936;7.184;2023-06-22T10:15:42;11.75;;;10.65;;
46607;SDS011;32330;51.936;7.184;2023-06-22T10:18:10;11.02;;;9.93;;
46607;SDS011;32330;51.936;7.184;2023-06-22T10:20:37;13.43;;;9.75;;
46607;SDS011;32330;51.936;7.184;2023-06-22T10:23:04;11.02;;;9.93;;
46607;SDS011;32330;51.936;7.184;2023-06-22T10:25:33;13.93;;;12.30;;
46607;SDS011;32330;51.936;7.184;2023-06-22T10:27:59;12.05;;;10.95;;
46607;SDS011;32330;51.936;7.184;2023-06-22T10:30:27;11.13;;;10.15;;
46607;SDS011;32330;51.936;7.184;2023-06-22T10:32:54;13.98;;;12.63;;
46607;SDS011;32330;51.936;7.184;2023-06-22T10:35:21;12.07;;;10.95;;
46607;SDS011;32330;51.936;7.184;2023-06-22T10:37:48;11.30;;;10.07;;
46607;SDS011;32330;51.936;7.184;2023-06-22T10:40:16;12.05;;;10.82;;
46607;SDS011;32330;51.936;7.184;2023-06-22T10:42:45;11.13;;;10.13;;
46607;SDS011;32330;51.936;7.184;2023-06-22T10:45:12;14.38;;;11.98;;
46607;SDS011;32330;51.936;7.184;2023-06-22T10:47:40;14.43;;;10.35;;
46607;SDS011;32330;51.936;7.184;2023-06-22T10:50:07;10.95;;;9.75;;
46607;SDS011;32330;51.936;7.184;2023-06-22T10:52:34;9.60;;;8.77;;
46607;SDS011;32330;51.936;7.184;2023-06-22T10:55:01;11.98;;;10.88;;
46607;SDS011;32330;51.936;7.184;2023-06-22T10:57:29;13.20;;;9.98;;
46607;SDS011;32330;51.936;7.184;2023-06-22T10:59:57;10.75;;;9.80;;
46607;SDS011;32330;51.936;7.184;2023-06-22T11:02:24;11.27;;;10.27;;
46607;SDS011;32330;51.936;7.184;2023-06-22T11:04:53;10.45;;;9.45;;
46607;SDS011;32330;51.936;7.184;2023-06-22T11:07:20;14.93;;;8.73;;
46607;SDS011;32330;51.936;7.184;2023-06-22T11:09:47;13.27;;;10.60;;
46607;SDS011;32330;51.936;7.184;2023-06-22T11:12:14;13.45;;;9.52;;
46607;SDS011;32330;51.936;7.184;2023-06-22T11:14:41;10.70;;;9.70;;
46607;SDS011;32330;51.936;7.184;2023-06-22T11:17:09;11.52;;;10.52;;
46607;SDS011;32330;51.936;7.184;2023-06-22T11:19:36;11.48;;;9.98;;
46607;SDS011;32330;51.936;7.184;2023-06-22T11:22:03;9.98;;;9.07;;
46607;SDS011;32330;51.936;7.184;2023-06-22T11:24:31;13.43;;;9.30;;
46607;SDS011;32330;51.936;7.184;2023-06-22T11:26:58;13.10;;;11.23;;
46607;SDS011;32330;51.936;7.184;2023-06-22T11:29:25;10.57;;;9.40;;
46607;SDS011;32330;51.936;7.184;2023-06-22T11:31:52;11.25;;;10.07;;
46607;SDS011;32330;51.936;7.184;2023-06-22T11:34:21;11.95;;;10.10;;
46607;SDS011;32330;51.936;7.184;2023-06-22T11:36:48;10.38;;;9.48;;
46607;SDS011;32330;51.936;7.184;2023-06-22T11:39:15;10.43;;;9.52;;
46607;SDS011;32330;51.936;7.184;2023-06-22T11:41:42;9.80;;;8.80;;
46607;SDS011;32330;51.936;7.184;2023-06-22T11:44:08;11.40;;;9.27;;
46607;SDS011;32330;51.936;7.184;2023-06-22T11:46:35;9.63;;;8.63;;
46607;SDS011;32330;51.936;7.184;2023-06-22T11:49:03;9.63;;;8.68;;
46607;SDS011;32330;51.936;7.184;2023-06-22T11:51:31;10.32;;;8.73;;
46607;SDS011;32330;51.936;7.184;2023-06-22T11:53:58;10.05;;;9.15;;
46607;SDS011;32330;51.936;7.184;2023-06-22T11:56:25;10.90;;;9.90;;
46607;SDS011;32330;51.936;7.184;2023-06-22T11:58:53;13.15;;;11.95;;
46607;SDS011;32330;51.936;7.184;2023-06-22T12:01:20;10.05;;;9.15;;
46607;SDS011;32330;51.936;7.184;2023-06-22T12:03:47;11.73;;;9.20;;
46607;SDS011;32330;51.936;7.184;2023-06-22T12:06:14;11.63;;;10.52;;
46607;SDS011;32330;51.936;7.184;2023-06-22T12:08:42;10.00;;;9.00;;
46607;SDS011;32330;51.936;7.184;2023-06-22T12:11:09;11.00;;;10.00;;
46607;SDS011;32330;51.936;7.184;2023-06-22T12:13:36;9.85;;;8.88;;
46607;SDS011;32330;51.936;7.184;2023-06-22T12:16:03;10.23;;;9.23;;
46607;SDS011;32330;51.936;7.184;2023-06-22T12:18:30;10.80;;;9.70;;
46607;SDS011;32330;51.936;7.184;2023-06-22T12:20:58;11.40;;;10.23;;
46607;SDS011;32330;51.936;7.184;2023-06-22T12:23:26;13.85;;;10.00;;
46607;SDS011;32330;51.936;7.184;2023-06-22T12:25:54;10.95;;;9.32;;
46607;SDS011;32330;51.936;7.184;2023-06-22T12:28:21;10.93;;;9.85;;
46607;SDS011;32330;51.936;7.184;2023-06-22T12:30:48;10.40;;;9.30;;
46607;SDS011;32330;51.936;7.184;2023-06-22T12:33:15;9.70;;;8.80;;
46607;SDS011;32330;51.936;7.184;2023-06-22T12:35:43;10.23;;;9.20;;
46607;SDS011;32330;51.936;7.184;2023-06-22T12:38:11;11.40;;;10.40;;
46607;SDS011;32330;51.936;7.184;2023-06-22T12:40:38;10.98;;;9.90;;
46607;SDS011;32330;51.936;7.184;2023-06-22T12:43:06;10.38;;;9.45;;
46607;SDS011;32330;51.936;7.184;2023-06-22T12:45:33;10.95;;;9.90;;
46607;SDS011;32330;51.936;7.184;2023-06-22T12:48:00;11.48;;;10.38;;
46607;SDS011;32330;51.936;7.184;2023-06-22T12:50:27;12.40;;;10.18;;
46607;SDS011;32330;51.936;7.184;2023-06-22T12:52:54;12.20;;;10.90;;
46607;SDS011;32330;51.936;7.184;2023-06-22T12:55:21;13.90;;;11.63;;
46607;SDS011;32330;51.936;7.184;2023-06-22T12:57:48;14.85;;;12.02;;
46607;SDS011;32330;51.936;7.184;2023-06-22T13:00:17;12.75;;;10.93;;
46607;SDS011;32330;51.936;7.184;2023-06-22T13:02:45;13.20;;;11.85;;
46607;SDS011;32330;51.936;7.184;2023-06-22T13:05:12;13.80;;;12.50;;
46607;SDS011;32330;51.936;7.184;2023-06-22T13:07:39;13.80;;;11.63;;
46607;SDS011;32330;51.936;7.184;2023-06-22T13:10:07;13.88;;;12.43;;
46607;SDS011;32330;51.936;7.184;2023-06-22T13:12:34;14.95;;;13.43;;
46607;SDS011;32330;51.936;7.184;2023-06-22T13:15:01;22.48;;;15.75;;
46607;SDS011;32330;51.936;7.184;2023-06-22T13:17:31;14.73;;;13.15;;
46607;SDS011;32330;51.936;7.184;2023-06-22T13:19:58;14.40;;;12.85;;
46607;SDS011;32330;51.936;7.184;2023-06-22T13:22:29;14.55;;;13.20;;
46607;SDS011;32330;51.936;7.184;2023-06-22T13:24:57;13.95;;;12.60;;
46607;SDS011;32330;51.936;7.184;2023-06-22T13:27:24;13.38;;;12.18;;
46607;SDS011;32330;51.936;7.184;2023-06-22T13:29:51;15.43;;;13.93;;
46607;SDS011;32330;51.936;7.184;2023-06-22T13:32:19;14.90;;;13.32;;
46607;SDS011;32330;51.936;7.184;2023-06-22T13:34:47;14.13;;;12.68;;
46607;SDS011;32330;51.936;7.184;2023-06-22T13:37:14;13.55;;;12.35;;
46607;SDS011;32330;51.936;7.184;2023-06-22T13:39:41;14.48;;;13.05;;
46607;SDS011;32330;51.936;7.184;2023-06-22T13:42:08;14.68;;;13.27;;
46607;SDS011;32330;51.936;7.184;2023-06-22T13:44:35;16.25;;;14.73;;
46607;SDS011;32330;51.936;7.184;2023-06-22T13:47:02;17.55;;;16.15;;
46607;SDS011;32330;51.936;7.184;2023-06-22T13:49:30;18.10;;;14.48;;
46607;SDS011;32330;51.936;7.184;2023-06-22T13:51:58;15.70;;;14.18;;
46607;SDS011;32330;51.936;7.184;2023-06-22T13:54:25;16.20;;;14.73;;
46607;SDS011;32330;51.936;7.184;2023-06-22T13:56:52;16.52;;;14.65;;
46607;SDS011;32330;51.936;7.184;2023-06-22T13:59:19;15.48;;;13.98;;
46607;SDS011;32330;51.936;7.184;2023-06-22T14:01:46;15.40;;;13.93;;
46607;SDS011;32330;51.936;7.184;2023-06-22T14:04:13;15.10;;;13.70;;
46607;SDS011;32330;51.936;7.184;2023-06-22T14:06:40;13.48;;;12.20;;
46607;SDS011;32330;51.936;7.184;2023-06-22T14:09:08;16.77;;;15.35;;
46607;SDS011;32330;51.936;7.184;2023-06-22T14:11:35;14.30;;;12.90;;
46607;SDS011;32330;51.936;7.184;2023-06-22T14:14:02;14.43;;;12.80;;
46607;SDS011;32330;51.936;7.184;2023-06-22T14:16:29;14.30;;;13.00;;
46607;SDS011;32330;51.936;7.184;2023-06-22T14:18:56;14.98;;;13.55;;
46607;SDS011;32330;51.936;7.184;2023-06-22T14:21:23;14.73;;;13.32;;
46607;SDS011;32330;51.936;7.184;2023-06-22T14:23:50;14.45;;;13.05;;
46607;SDS011;32330;51.936;7.184;2023-06-22T14:26:19;14.63;;;13.32;;
46607;SDS011;32330;51.936;7.184;2023-06-22T14:28:46;14.45;;;13.05;;
46607;SDS011;32330;51.936;7.184;2023-06-22T14:31:15;16.05;;;14.55;;
46607;SDS011;32330;51.936;7.184;2023-06-22T14:33:46;15.50;;;13.88;;
46607;SDS011;32330;51.936;7.184;2023-06-22T14:36:14;14.65;;;13.30;;
46607;SDS011;32330;51.936;7.184;2023-06-22T14:38:42;13.95;;;12.55;;
46607;SDS011;32330;51.936;7.184;2023-06-22T14:41:09;14.38;;;12.95;;
46607;SDS011;32330;51.936;7.184;2023-06-22T14:43:38;13.65;;;12.35;;
46607;SDS011;32330;51.936;7.184;2023-06-22T14:46:05;14.05;;;12.75;;